createdAt,value
2024-01-18T00:00:02.027Z,98.6
2024-01-18T00:01:03.677Z,98.6
2024-01-18T00:02:06.019Z,98.6
2024-01-18T00:03:07.578Z,98.6
2024-01-18T00:04:09.682Z,98.6
2024-01-18T00:05:11.891Z,98.6
2024-01-18T00:06:13.773Z,98.6
2024-01-18T00:07:16.145Z,98.6
2024-01-18T00:08:17.313Z,98.6
2024-01-18T00:09:19.553Z,98.6
2024-01-18T00:10:21.268Z,98.6
2024-01-18T00:11:23.261Z,98.6
2024-01-18T00:12:25.420Z,98.6
2024-01-18T00:13:27.460Z,98.6
2024-01-18T00:14:29.272Z,98.6
2024-01-18T00:15:31.720Z,98.5
2024-01-18T00:16:33.291Z,98.5
2024-01-18T00:17:35.675Z,98.5
2024-01-18T00:18:37.929Z,98.5
2024-01-18T00:19:39.818Z,98.6
2024-01-18T00:20:41.262Z,98.6
2024-01-18T00:21:43.275Z,98.6
2024-01-18T00:22:45.345Z,98.6
2024-01-18T00:23:47.242Z,98.6
2024-01-18T00:24:49.261Z,98.6
2024-01-18T00:25:51.282Z,98.6
2024-01-18T00:26:53.553Z,98.6
2024-01-18T00:27:55.248Z,98.6
2024-01-18T00:28:57.260Z,98.6
2024-01-18T00:29:59.402Z,98.6
2024-01-18T00:31:01.271Z,98.6
2024-01-18T00:32:03.259Z,98.6
2024-01-18T00:33:05.591Z,98.6
2024-01-18T00:34:07.257Z,98.6
2024-01-18T00:35:09.676Z,98.6
2024-01-18T00:36:11.773Z,98.6
2024-01-18T00:37:13.231Z,98.7
2024-01-18T00:38:15.555Z,98.7
2024-01-18T00:39:17.611Z,98.7
2024-01-18T00:40:19.267Z,98.7
2024-01-18T00:41:21.240Z,98.7
2024-01-18T00:42:23.272Z,98.7
2024-01-18T00:43:25.498Z,98.8
2024-01-18T00:44:27.242Z,98.8
2024-01-18T00:45:29.693Z,98.8
2024-01-18T00:46:31.219Z,98.7
2024-01-18T00:47:33.406Z,98.7
2024-01-18T00:48:35.546Z,98.8
2024-01-18T00:49:37.584Z,98.7
2024-01-18T00:50:39.231Z,98.7
2024-01-18T00:51:41.357Z,98.7
2024-01-18T00:52:43.250Z,98.7
2024-01-18T00:53:45.457Z,98.7
2024-01-18T00:54:47.239Z,98.7
2024-01-18T00:55:49.214Z,98.7
2024-01-18T00:56:51.637Z,98.7
2024-01-18T00:57:53.349Z,98.7
2024-01-18T00:58:55.231Z,98.7
2024-01-18T00:59:57.460Z,98.8
2024-01-18T01:00:59.543Z,98.8
2024-01-18T01:02:01.206Z,98.8
2024-01-18T01:03:03.265Z,98.8
2024-01-18T01:04:05.451Z,98.8
2024-01-18T01:05:07.203Z,98.8
2024-01-18T01:06:09.252Z,98.8
2024-01-18T01:07:11.196Z,98.8
2024-01-18T01:08:13.646Z,98.8
2024-01-18T01:09:15.382Z,98.7
2024-01-18T01:10:18.018Z,98.8
2024-01-18T01:11:19.452Z,98.8
2024-01-18T01:12:21.545Z,98.8
2024-01-18T01:13:23.212Z,98.8
2024-01-18T01:14:25.286Z,98.8
2024-01-18T01:15:27.404Z,98.8
2024-01-18T01:16:29.186Z,98.8
2024-01-18T01:17:31.463Z,98.8
2024-01-18T01:18:33.558Z,98.8
2024-01-18T01:19:35.286Z,98.8
2024-01-18T01:20:37.199Z,98.7
2024-01-18T01:21:39.220Z,98.7
2024-01-18T01:22:41.224Z,98.8
2024-01-18T01:23:43.779Z,98.8
2024-01-18T01:24:45.226Z,98.8
2024-01-18T01:25:47.171Z,98.8
2024-01-18T01:26:49.208Z,98.7
2024-01-18T01:27:51.189Z,98.7
2024-01-18T01:28:53.199Z,98.6
2024-01-18T01:29:55.531Z,98.6
2024-01-18T01:30:57.183Z,98.6
2024-01-18T01:31:59.203Z,98.6
2024-01-18T01:33:01.844Z,98.6
2024-01-18T01:34:03.504Z,98.6
2024-01-18T01:35:05.183Z,98.5
2024-01-18T01:36:07.540Z,98.5
2024-01-18T01:37:09.168Z,98.4
2024-01-18T01:38:11.315Z,98.4
2024-01-18T01:39:13.408Z,98.4
2024-01-18T01:40:15.460Z,98.3
2024-01-18T01:41:17.747Z,98.3
2024-01-18T01:42:19.269Z,98.2
2024-01-18T01:43:21.161Z,98.2
2024-01-18T01:44:23.159Z,98.2
2024-01-18T01:45:25.470Z,98.1
2024-01-18T01:46:27.451Z,98
2024-01-18T01:47:29.531Z,98
2024-01-18T01:48:31.761Z,98
2024-01-18T01:49:33.356Z,98
2024-01-18T01:50:36.198Z,98
2024-01-18T01:51:37.439Z,97.9
2024-01-18T01:52:39.157Z,97.9
2024-01-18T01:53:41.156Z,97.9
2024-01-18T01:54:43.311Z,97.8
2024-01-18T01:55:45.346Z,97.8
2024-01-18T01:56:47.156Z,97.9
2024-01-18T01:57:49.433Z,97.8
2024-01-18T01:58:51.136Z,97.8
2024-01-18T01:59:53.284Z,97.7
2024-01-18T02:00:55.406Z,97.7
2024-01-18T02:01:57.133Z,97.6
2024-01-18T02:02:59.481Z,97.5
2024-01-18T02:04:01.545Z,97.5
2024-01-18T02:05:03.228Z,97.5
2024-01-18T02:06:05.645Z,97.4
2024-01-18T02:07:07.125Z,97.4
2024-01-18T02:08:09.123Z,97.4
2024-01-18T02:09:11.724Z,97.4
2024-01-18T02:10:13.615Z,97.3
2024-01-18T02:11:15.256Z,97.3
2024-01-18T02:12:17.619Z,97.3
2024-01-18T02:13:19.137Z,97.3
2024-01-18T02:14:21.149Z,97.2
2024-01-18T02:15:23.204Z,97.2
2024-01-18T02:16:25.116Z,97.2
2024-01-18T02:17:27.292Z,97.2
2024-01-18T02:18:29.668Z,97.2
2024-01-18T02:19:31.427Z,97.3
2024-01-18T02:20:33.106Z,97.3
2024-01-18T02:21:35.514Z,97.3
2024-01-18T02:22:37.117Z,97.1
2024-01-18T02:23:39.261Z,97
2024-01-18T02:24:41.362Z,96.9
2024-01-18T02:25:43.105Z,96.9
2024-01-18T02:26:45.147Z,96.8
2024-01-18T02:27:47.174Z,96.9
2024-01-18T02:28:49.096Z,96.9
2024-01-18T02:29:51.100Z,96.9
2024-01-18T02:30:53.335Z,97
2024-01-18T02:31:55.121Z,97
2024-01-18T02:32:57.488Z,97
2024-01-18T02:33:59.256Z,96.9
2024-01-18T02:35:01.106Z,96.9
2024-01-18T02:36:03.764Z,96.9
2024-01-18T02:37:05.359Z,96.9
2024-01-18T02:38:07.429Z,96.8
2024-01-18T02:39:09.170Z,96.8
2024-01-18T02:40:11.211Z,96.6
2024-01-18T02:41:13.112Z,96.6
2024-01-18T02:42:15.403Z,96.6
2024-01-18T02:43:17.071Z,96.6
2024-01-18T02:44:19.078Z,96.6
2024-01-18T02:45:21.202Z,96.6
2024-01-18T02:46:23.092Z,96.6
2024-01-18T02:47:25.184Z,96.6
2024-01-18T02:48:27.373Z,96.6
2024-01-18T02:49:29.415Z,96.6
2024-01-18T02:50:31.089Z,96.6
2024-01-18T02:51:33.536Z,96.6
2024-01-18T02:52:35.055Z,96.4
2024-01-18T02:53:37.055Z,96.2
2024-01-18T02:54:39.394Z,96
2024-01-18T02:55:41.412Z,96
2024-01-18T02:56:43.049Z,96
2024-01-18T02:57:45.277Z,95.8
2024-01-18T02:58:47.060Z,95.5
2024-01-18T02:59:49.074Z,95.5
2024-01-18T03:00:51.428Z,95.5
2024-01-18T03:01:53.053Z,95.5
2024-01-18T03:02:55.189Z,95.6
2024-01-18T03:03:57.614Z,95.6
2024-01-18T03:04:59.291Z,95.7
2024-01-18T03:06:01.400Z,95.7
2024-01-18T03:07:03.040Z,95.8
2024-01-18T03:08:05.198Z,95.9
2024-01-18T03:09:07.210Z,96
2024-01-18T03:10:09.055Z,96.1
2024-01-18T03:11:11.036Z,96.1
2024-01-18T03:12:13.377Z,96.2
2024-01-18T03:13:15.143Z,96.3
2024-01-18T03:14:17.047Z,96.4
2024-01-18T03:15:19.219Z,96.5
2024-01-18T03:16:21.024Z,96.5
2024-01-18T03:17:23.363Z,96.5
2024-01-18T03:18:25.412Z,96.5
2024-01-18T03:19:27.181Z,96.5
2024-01-18T03:20:29.041Z,96.5
2024-01-18T03:21:31.273Z,96.4
2024-01-18T03:22:33.030Z,96.3
2024-01-18T03:23:35.066Z,96.2
2024-01-18T03:24:37.447Z,96.2
2024-01-18T03:25:39.152Z,96.3
2024-01-18T03:26:41.017Z,96.5
2024-01-18T03:27:43.317Z,96.5
2024-01-18T03:28:45.346Z,96.6
2024-01-18T03:29:47.031Z,96.7
2024-01-18T03:30:49.451Z,96.7
2024-01-18T03:31:51.011Z,96.7
2024-01-18T03:32:53.283Z,96.6
2024-01-18T03:33:55.358Z,96.7
2024-01-18T03:34:57.009Z,96.6
2024-01-18T03:35:59.430Z,96.7
2024-01-18T03:37:01.018Z,96.7
2024-01-18T03:38:03.195Z,96.7
2024-01-18T03:39:05.043Z,96.8
2024-01-18T03:40:07.012Z,96.8
2024-01-18T03:41:08.986Z,96.7
2024-01-18T03:42:11.125Z,96.7
2024-01-18T03:43:13.000Z,96.7
2024-01-18T03:44:15.042Z,96.7
2024-01-18T03:45:17.318Z,96.7
2024-01-18T03:46:19.020Z,96.7
2024-01-18T03:47:21.404Z,96.7
2024-01-18T03:48:23.171Z,96.7
2024-01-18T03:49:25.189Z,96.7
2024-01-18T03:50:26.989Z,96.7
2024-01-18T03:51:29.330Z,96.7
2024-01-18T03:52:31.005Z,96.7
2024-01-18T03:53:33.715Z,96.7
2024-01-18T03:54:35.220Z,96.7
2024-01-18T03:55:37.010Z,96.8
2024-01-18T03:56:39.002Z,96.8
2024-01-18T03:57:41.454Z,96.7
2024-01-18T03:58:42.998Z,96.7
2024-01-18T03:59:45.020Z,96.7
2024-01-18T04:00:47.563Z,96.7
2024-01-18T04:01:48.979Z,96.7
2024-01-18T04:02:51.353Z,96.7
2024-01-18T04:03:53.425Z,96.7
2024-01-18T04:04:54.991Z,96.7
2024-01-18T04:05:57.234Z,96.8
2024-01-18T04:06:59.218Z,96.8
2024-01-18T04:08:00.969Z,96.8
2024-01-18T04:09:03.306Z,96.8
2024-01-18T04:10:05.374Z,96.6
2024-01-18T04:11:06.950Z,96.7
2024-01-18T04:12:09.179Z,96.6
2024-01-18T04:13:10.959Z,96.7
2024-01-18T04:14:12.985Z,96.7
2024-01-18T04:15:15.392Z,96.7
2024-01-18T04:16:16.950Z,96.7
2024-01-18T04:17:18.950Z,96.7
2024-01-18T04:18:21.282Z,96.6
2024-01-18T04:19:23.304Z,96.7
2024-01-18T04:20:24.942Z,96.8
2024-01-18T04:21:27.085Z,96.8
2024-01-18T04:22:28.954Z,97
2024-01-18T04:23:30.966Z,97
2024-01-18T04:24:33.232Z,97
2024-01-18T04:25:34.950Z,97
2024-01-18T04:26:37.311Z,97.1
2024-01-18T04:27:39.436Z,97.1
2024-01-18T04:28:41.134Z,97.1
2024-01-18T04:29:42.948Z,97.1
2024-01-18T04:30:45.325Z,97.1
2024-01-18T04:31:46.931Z,97.1
2024-01-18T04:32:49.363Z,97.2
2024-01-18T04:33:51.145Z,97.1
2024-01-18T04:34:53.146Z,97.2
2024-01-18T04:35:54.922Z,97.2
2024-01-18T04:36:56.921Z,97.2
2024-01-18T04:37:58.947Z,97.2
2024-01-18T04:39:01.055Z,97.3
2024-01-18T04:40:02.948Z,97.2
2024-01-18T04:41:04.905Z,97.3
2024-01-18T04:42:07.273Z,97.3
2024-01-18T04:43:08.935Z,97.2
2024-01-18T04:44:11.014Z,97.2
2024-01-18T04:45:13.443Z,97.3
2024-01-18T04:46:15.153Z,97.2
2024-01-18T04:47:16.931Z,97.3
2024-01-18T04:48:19.312Z,97.3
2024-01-18T04:49:21.301Z,97.3
2024-01-18T04:50:22.927Z,97.3
2024-01-18T04:51:25.119Z,97.3
2024-01-18T04:52:26.924Z,97.2
2024-01-18T04:53:28.911Z,97.2
2024-01-18T04:54:31.298Z,97.3
2024-01-18T04:55:32.901Z,97.3
2024-01-18T04:56:34.917Z,97.3
2024-01-18T04:57:37.499Z,97.3
2024-01-18T04:58:43.494Z,97.3
2024-01-18T04:59:44.216Z,97.3
2024-01-18T05:00:46.717Z,97.3
2024-01-18T05:01:48.427Z,97.3
2024-01-18T05:02:50.223Z,97.3
2024-01-18T05:03:52.514Z,97.2
2024-01-18T05:04:54.646Z,97.3
2024-01-18T05:05:56.659Z,97.2
2024-01-18T05:06:58.574Z,97.2
2024-01-18T05:08:00.389Z,97.2
2024-01-18T05:09:02.486Z,97.2
2024-01-18T05:10:04.530Z,97.1
2024-01-18T05:11:06.239Z,97.1
2024-01-18T05:12:11.633Z,97.1
2024-01-18T05:13:13.701Z,97.2
2024-01-18T05:14:15.692Z,97.2
2024-01-18T05:15:17.954Z,97.2
2024-01-18T05:16:19.695Z,97.2
2024-01-18T05:17:22.024Z,97.2
2024-01-18T05:18:24.095Z,97.2
2024-01-18T05:19:25.832Z,97.2
2024-01-18T05:20:27.727Z,97.2
2024-01-18T05:21:30.223Z,97.2
2024-01-18T05:22:31.687Z,97.2
2024-01-18T05:23:33.684Z,97.3
2024-01-18T05:24:36.128Z,97.3
2024-01-18T05:25:37.673Z,97.4
2024-01-18T05:26:39.693Z,97.4
2024-01-18T05:27:41.978Z,97.4
2024-01-18T05:28:43.723Z,97.4
2024-01-18T05:29:45.689Z,97.4
2024-01-18T05:30:48.119Z,97.5
2024-01-18T05:31:49.763Z,97.5
2024-01-18T05:32:51.933Z,97.5
2024-01-18T05:33:53.957Z,97.4
2024-01-18T05:34:56.034Z,97.5
2024-01-18T05:35:57.658Z,97.5
2024-01-18T05:36:59.665Z,97.5
2024-01-18T05:38:01.850Z,97.5
2024-01-18T05:39:03.735Z,97.5
2024-01-18T05:40:05.677Z,97.5
2024-01-18T05:41:07.650Z,97.4
2024-01-18T05:42:09.780Z,97.4
2024-01-18T05:43:11.682Z,97.4
2024-01-18T05:44:13.649Z,97.3
2024-01-18T05:45:15.951Z,97.3
2024-01-18T05:46:23.192Z,97.3
2024-01-18T05:47:23.997Z,97.3
2024-01-18T05:48:26.443Z,97.3
2024-01-18T05:49:28.253Z,97.3
2024-01-18T05:50:29.955Z,97.3
2024-01-18T05:51:32.033Z,97.3
2024-01-18T05:52:33.968Z,97.3
2024-01-18T05:53:35.945Z,97.3
2024-01-18T05:54:38.437Z,97.3
2024-01-18T05:55:39.957Z,97.3
2024-01-18T05:56:41.965Z,97.3
2024-01-18T05:57:44.301Z,97.2
2024-01-18T05:58:47.225Z,97.2
2024-01-18T05:59:47.930Z,97.2
2024-01-18T06:00:50.130Z,97.2
2024-01-18T06:01:51.975Z,97.1
2024-01-18T06:02:53.951Z,97.1
2024-01-18T06:03:56.328Z,97.1
2024-01-18T06:04:57.928Z,97.1
2024-01-18T06:06:00.489Z,97.1
2024-01-18T06:07:02.581Z,97.1
2024-01-18T06:08:03.945Z,97.1
2024-01-18T06:09:06.278Z,97.1
2024-01-18T06:10:07.936Z,97.1
2024-01-18T06:11:09.954Z,97.1
2024-01-18T06:12:11.977Z,97.1
2024-01-18T06:13:13.923Z,97.1
2024-01-18T06:14:16.221Z,97.1
2024-01-18T06:15:18.266Z,97.1
2024-01-18T06:16:19.939Z,97.1
2024-01-18T06:17:21.947Z,97.1
2024-01-18T06:18:24.534Z,97.2
2024-01-18T06:19:26.264Z,97.3
2024-01-18T06:20:27.930Z,97.3
2024-01-18T06:21:29.967Z,97.3
2024-01-18T06:22:31.917Z,97.3
2024-01-18T06:23:33.914Z,97.3
2024-01-18T06:24:36.152Z,97.3
2024-01-18T06:25:37.939Z,97.3
2024-01-18T06:26:39.953Z,97.3
2024-01-18T06:27:42.340Z,97.3
2024-01-18T06:28:43.906Z,97.4
2024-01-18T06:29:45.927Z,97.4
2024-01-18T06:30:48.175Z,97.5
2024-01-18T06:31:49.888Z,97.5
2024-01-18T06:32:52.360Z,97.5
2024-01-18T06:33:54.348Z,97.5
2024-01-18T06:34:56.435Z,97.5
2024-01-18T06:35:57.905Z,97.5
2024-01-18T06:36:59.885Z,97.6
2024-01-18T06:38:01.891Z,97.6
2024-01-18T06:39:04.325Z,97.6
2024-01-18T06:40:05.878Z,97.7
2024-01-18T06:41:07.909Z,97.7
2024-01-18T06:42:10.202Z,97.7
2024-01-18T06:43:11.925Z,97.7
2024-01-18T06:44:13.917Z,97.8
2024-01-18T06:45:16.317Z,97.8
2024-01-18T06:46:18.124Z,97.9
2024-01-18T06:47:20.133Z,97.9
2024-01-18T06:48:22.496Z,97.9
2024-01-18T06:49:23.985Z,97.9
2024-01-18T06:50:26.337Z,97.9
2024-01-18T06:51:28.960Z,97.8
2024-01-18T06:52:30.359Z,97.8
2024-01-18T06:53:32.266Z,97.8
2024-01-18T06:54:34.250Z,97.8
2024-01-18T06:55:36.268Z,97.8
2024-01-18T06:56:37.898Z,97.8
2024-01-18T06:57:40.740Z,97.8
2024-01-18T06:58:42.230Z,97.7
2024-01-18T06:59:43.880Z,97.7
2024-01-18T07:00:46.524Z,97.7
2024-01-18T07:01:48.273Z,97.7
2024-01-18T07:02:49.892Z,97.6
2024-01-18T07:03:52.478Z,97.6
2024-01-18T07:04:54.542Z,97.7
2024-01-18T07:05:55.923Z,97.7
2024-01-18T07:06:58.878Z,97.7
2024-01-18T07:08:00.375Z,97.7
2024-01-18T07:09:02.054Z,97.8
2024-01-18T07:10:04.313Z,97.8
2024-01-18T07:11:06.733Z,97.9
2024-01-18T07:12:08.493Z,97.9
2024-01-18T07:13:10.480Z,97.9
2024-01-18T07:14:12.569Z,97.9
2024-01-18T07:15:14.659Z,98
2024-01-18T07:16:15.880Z,98
2024-01-18T07:17:18.194Z,98
2024-01-18T07:18:20.817Z,98.2
2024-01-18T07:19:22.612Z,98.2
2024-01-18T07:20:24.561Z,98.2
2024-01-18T07:21:26.647Z,98.2
2024-01-18T07:22:27.873Z,98.3
2024-01-18T07:23:30.438Z,98.3
2024-01-18T07:24:32.385Z,98.3
2024-01-18T07:25:34.827Z,98.3
2024-01-18T07:26:35.874Z,98.3
2024-01-18T07:27:38.106Z,98.4
2024-01-18T07:28:39.845Z,98.4
2024-01-18T07:29:41.924Z,98.4
2024-01-18T07:30:44.351Z,98.4
2024-01-18T07:31:49.029Z,98.4
2024-01-18T07:32:50.159Z,98.4
2024-01-18T07:33:51.993Z,98.4
2024-01-18T07:34:54.066Z,98.4
2024-01-18T07:35:55.558Z,98.4
2024-01-18T07:36:58.106Z,98.4
2024-01-18T07:37:59.543Z,98.5
2024-01-18T07:39:02.242Z,98.5
2024-01-18T07:40:03.906Z,98.5
2024-01-18T07:41:05.849Z,98.5
2024-01-18T07:42:07.813Z,98.6
2024-01-18T07:43:09.568Z,98.5
2024-01-18T07:44:12.120Z,98.5
2024-01-18T07:45:13.655Z,98.5
2024-01-18T07:46:15.709Z,98.6
2024-01-18T07:47:17.863Z,98.6
2024-01-18T07:48:20.388Z,98.5
2024-01-18T07:49:22.163Z,98.6
2024-01-18T07:50:36.925Z,98.5
2024-01-18T07:51:38.802Z,98.6
2024-01-18T07:52:40.041Z,98.5
2024-01-18T07:53:42.709Z,98.5
2024-01-18T07:54:44.368Z,98.5
2024-01-18T07:55:46.164Z,98.5
2024-01-18T07:56:47.905Z,98.5
2024-01-18T07:57:50.320Z,98.4
2024-01-18T07:58:52.865Z,98.5
2024-01-18T07:59:54.219Z,98.5
2024-01-18T08:00:56.866Z,98.4
2024-01-18T08:01:58.289Z,98.5
2024-01-18T08:02:59.931Z,98.4
2024-01-18T08:04:02.897Z,98.4
2024-01-18T08:05:04.980Z,98.4
2024-01-18T08:06:06.732Z,98.3
2024-01-18T08:07:08.201Z,98.3
2024-01-18T08:08:10.774Z,98.3
2024-01-18T08:09:12.535Z,98.3
2024-01-18T08:10:14.542Z,98.2
2024-01-18T08:11:16.401Z,98.2
2024-01-18T08:12:17.967Z,98.1
2024-01-18T08:13:19.923Z,98.1
2024-01-18T08:14:22.142Z,98.1
2024-01-18T08:15:24.620Z,98
2024-01-18T08:16:26.723Z,98
2024-01-18T08:17:28.675Z,97.8
2024-01-18T08:18:30.476Z,97.6
2024-01-18T08:19:32.962Z,97.5
2024-01-18T08:20:34.527Z,97.2
2024-01-18T08:21:36.346Z,96.9
2024-01-18T08:22:38.896Z,96.8
2024-01-18T08:23:39.928Z,96.8
2024-01-18T08:24:42.546Z,97
2024-01-18T08:25:44.004Z,97.1
2024-01-18T08:26:46.830Z,97.2
2024-01-18T08:27:48.310Z,97.2
2024-01-18T08:28:50.086Z,97.3
2024-01-18T08:29:52.993Z,97.5
2024-01-18T08:30:54.499Z,97.5
2024-01-18T08:31:56.465Z,97.4
2024-01-18T08:32:58.015Z,97.3
2024-01-18T08:34:00.256Z,97.4
2024-01-18T08:35:03.285Z,97.1
2024-01-18T08:36:04.516Z,96.9
2024-01-18T08:37:06.534Z,96.9
2024-01-18T08:38:08.784Z,96.8
2024-01-18T08:39:10.748Z,96.8
2024-01-18T08:40:16.336Z,96.8
2024-01-18T08:41:18.021Z,96.8
2024-01-18T08:42:20.431Z,96.8
2024-01-18T08:43:21.412Z,96.7
2024-01-18T08:44:23.367Z,96.7
2024-01-18T08:45:25.448Z,96.6
2024-01-18T08:46:27.137Z,96.5
2024-01-18T08:47:29.138Z,96.5
2024-01-18T08:48:31.300Z,96.5
2024-01-18T08:49:33.940Z,96.4
2024-01-18T08:50:35.928Z,96.4
2024-01-18T08:51:37.491Z,96.4
2024-01-18T08:52:39.173Z,96.5
2024-01-18T08:53:42.084Z,96.6
2024-01-18T08:54:44.207Z,96.6
2024-01-18T08:55:45.090Z,96.6
2024-01-18T08:56:48.537Z,96.5
2024-01-18T08:57:49.552Z,96.5
2024-01-18T08:58:51.513Z,96.6
2024-01-18T08:59:53.307Z,96.6
2024-01-18T09:00:55.369Z,96.6
2024-01-18T09:02:09.575Z,96.6
2024-01-18T09:03:18.206Z,96.6
2024-01-18T09:04:20.841Z,96.5
2024-01-18T09:05:22.308Z,96.4
2024-01-18T09:06:24.666Z,96.4
2024-01-18T09:07:27.031Z,96.5
2024-01-18T09:08:28.489Z,96.5
2024-01-18T09:09:30.527Z,96.5
2024-01-18T09:10:32.256Z,96.5
2024-01-18T09:11:34.154Z,96.4
2024-01-18T09:12:36.463Z,96.4
2024-01-18T09:13:38.167Z,96.4
2024-01-18T09:14:40.147Z,96.5
2024-01-18T09:15:42.536Z,96.5
2024-01-18T09:16:44.240Z,96.5
2024-01-18T09:17:46.962Z,96.5
2024-01-18T09:19:10.250Z,96.5
2024-01-18T09:20:15.040Z,96.4
2024-01-18T09:21:17.074Z,96.3
2024-01-18T09:22:18.640Z,96.3
2024-01-18T09:23:20.651Z,96.2
2024-01-18T09:24:22.945Z,96.2
2024-01-18T09:25:24.601Z,96.2
2024-01-18T09:26:26.726Z,96.2
2024-01-18T09:27:28.827Z,96.2
2024-01-18T09:28:31.351Z,96.1
2024-01-18T09:29:32.603Z,96.1
2024-01-18T09:30:34.755Z,96.1
2024-01-18T09:31:43.646Z,96.2
2024-01-18T09:32:44.215Z,96.2
2024-01-18T09:33:46.342Z,96.2
2024-01-18T09:34:48.179Z,96.1
2024-01-18T09:35:50.460Z,96.1
2024-01-18T09:36:53.056Z,96.1
2024-01-18T09:37:54.526Z,96
2024-01-18T09:38:56.184Z,95.8
2024-01-18T09:39:58.366Z,95.6
2024-01-18T09:41:00.297Z,95.4
2024-01-18T09:42:02.462Z,95.1
2024-01-18T09:43:04.169Z,94.9
2024-01-18T09:44:06.559Z,94.6
2024-01-18T09:45:08.309Z,94.5
2024-01-18T09:46:10.374Z,94.4
2024-01-18T09:47:12.172Z,94.5
2024-01-18T09:48:14.516Z,94.6
2024-01-18T09:49:16.179Z,94.6
2024-01-18T09:50:18.294Z,94.4
2024-01-18T09:51:20.328Z,94.1
2024-01-18T09:52:22.154Z,93.8
2024-01-18T09:53:24.171Z,93.6
2024-01-18T09:54:26.558Z,93.4
2024-01-18T09:55:28.535Z,93.3
2024-01-18T09:56:30.595Z,93.2
2024-01-18T09:57:32.377Z,93.2
2024-01-18T09:58:34.381Z,93.1
2024-01-18T09:59:36.177Z,92.9
2024-01-18T10:00:38.564Z,92.6
2024-01-18T10:01:40.555Z,92.3
2024-01-18T10:02:42.137Z,91.8
2024-01-18T10:03:44.366Z,91.6
2024-01-18T10:04:46.185Z,91.5
2024-01-18T10:05:48.551Z,91.3
2024-01-18T10:06:50.866Z,91.4
2024-01-18T10:07:52.658Z,91.6
2024-01-18T10:08:54.853Z,91.5
2024-01-18T10:09:56.402Z,91.4
2024-01-18T10:10:58.136Z,91.4
2024-01-18T10:12:00.166Z,90.8
2024-01-18T10:13:02.711Z,90.5
2024-01-18T10:14:04.586Z,90.3
2024-01-18T10:15:06.353Z,90.1
2024-01-18T10:16:08.121Z,90.2
2024-01-18T10:17:10.238Z,90.2
2024-01-18T10:18:12.565Z,90.3
2024-01-18T10:19:14.582Z,90
2024-01-18T10:20:16.920Z,89.4
2024-01-18T10:21:18.928Z,88.7
2024-01-18T10:22:21.291Z,88.7
2024-01-18T10:23:22.517Z,88.7
2024-01-18T10:24:24.463Z,88.5
2024-01-18T10:25:26.810Z,87.7
2024-01-18T10:26:28.432Z,87.6
2024-01-18T10:27:30.411Z,87.6
2024-01-18T10:28:32.464Z,87.8
2024-01-18T10:29:34.489Z,87.7
2024-01-18T10:30:36.174Z,87.9
2024-01-18T10:31:38.172Z,87.7
2024-01-18T10:32:40.173Z,87.7
2024-01-18T10:33:42.440Z,87.8
2024-01-18T10:34:44.487Z,88.1
2024-01-18T10:35:46.103Z,88.3
2024-01-18T10:36:48.286Z,88.1
2024-01-18T10:37:50.434Z,88.2
2024-01-18T10:38:52.185Z,88.3
2024-01-18T10:39:54.687Z,87.9
2024-01-18T10:40:56.111Z,87.4
2024-01-18T10:41:58.125Z,87.8
2024-01-18T10:43:00.141Z,87.8
2024-01-18T10:44:02.375Z,87.3
2024-01-18T10:45:04.087Z,86.8
2024-01-18T10:46:06.163Z,86.1
2024-01-18T10:47:08.184Z,85.2
2024-01-18T10:48:10.216Z,84.7
2024-01-18T10:49:12.440Z,84.5
2024-01-18T10:50:14.369Z,84.2
2024-01-18T10:51:16.739Z,84.2
2024-01-18T10:52:18.093Z,84.1
2024-01-18T10:53:20.084Z,83.7
2024-01-18T10:54:36.149Z,84
2024-01-18T10:55:38.468Z,83.9
2024-01-18T10:56:40.111Z,83.6
2024-01-18T10:57:42.277Z,83.1
2024-01-18T10:58:45.468Z,82.6
2024-01-18T10:59:47.558Z,81.8
2024-01-18T11:00:50.004Z,80.8
2024-01-18T11:01:51.352Z,79.7
2024-01-18T11:02:53.796Z,78.8
2024-01-18T11:03:55.479Z,78.2
2024-01-18T11:04:57.539Z,77.6
2024-01-18T11:05:59.530Z,77.4
2024-01-18T11:07:01.785Z,76.9
2024-01-18T11:08:03.390Z,76.6
2024-01-18T11:09:05.709Z,76.5
2024-01-18T11:10:07.780Z,76.4
2024-01-18T11:11:09.880Z,76.4
2024-01-18T11:12:11.310Z,75.9
2024-01-18T11:13:13.677Z,75
2024-01-18T11:14:15.689Z,74.1
2024-01-18T11:15:17.786Z,73.5
2024-01-18T11:16:19.481Z,73.3
2024-01-18T11:17:21.048Z,73
2024-01-18T11:18:23.611Z,73.5
2024-01-18T11:19:25.570Z,74
2024-01-18T11:20:27.680Z,74.2
2024-01-18T11:21:29.251Z,74
2024-01-18T11:22:31.504Z,73.3
2024-01-18T11:23:33.544Z,72.4
2024-01-18T11:24:35.442Z,72
2024-01-18T11:25:37.421Z,70.8
2024-01-18T11:26:40.172Z,69.7
2024-01-18T11:27:41.744Z,68.4
2024-01-18T11:28:42.898Z,67.5
2024-01-18T11:29:44.878Z,66.4
2024-01-18T11:30:47.144Z,65.7
2024-01-18T11:31:49.130Z,64.9
2024-01-18T11:32:51.207Z,64
2024-01-18T11:33:53.273Z,63
2024-01-18T11:34:54.870Z,62.9
2024-01-18T11:35:57.141Z,62.3
2024-01-18T11:36:59.136Z,62
2024-01-18T11:38:00.912Z,62.6
2024-01-18T11:39:02.901Z,63.3
2024-01-18T11:40:04.849Z,64.4
2024-01-18T11:41:06.859Z,65.5
2024-01-18T11:42:09.093Z,67
2024-01-18T11:43:10.873Z,68.2
2024-01-18T11:44:12.848Z,69.5
2024-01-18T11:45:15.232Z,70.8
2024-01-18T11:46:17.953Z,72.3
2024-01-18T11:47:18.875Z,73.6
2024-01-18T11:48:21.153Z,74.7
2024-01-18T11:49:23.246Z,75.8
2024-01-18T11:50:24.858Z,76.5
2024-01-18T11:51:26.954Z,77.4
2024-01-18T11:52:28.989Z,78.1
2024-01-18T11:53:30.844Z,79
2024-01-18T11:54:33.136Z,79.7
2024-01-18T11:55:34.831Z,80.3
2024-01-18T11:56:36.867Z,81.1
2024-01-18T11:57:39.274Z,81.5
2024-01-18T11:58:40.829Z,81.9
2024-01-18T11:59:42.864Z,82.8
2024-01-18T12:00:45.155Z,83.2
2024-01-18T12:01:47.226Z,83.6
2024-01-18T12:02:48.852Z,83.6
2024-01-18T12:03:51.637Z,83.9
2024-01-18T12:04:53.719Z,84
2024-01-18T12:05:54.849Z,84.2
2024-01-18T12:06:57.218Z,84.2
2024-01-18T12:07:59.230Z,84.5
2024-01-18T12:09:00.846Z,84.5
2024-01-18T12:10:02.850Z,85
2024-01-18T12:11:04.883Z,85.2
2024-01-18T12:12:06.836Z,85.6
2024-01-18T12:13:09.189Z,85.9
2024-01-18T12:14:10.813Z,86.3
2024-01-18T12:15:12.981Z,86.6
2024-01-18T12:16:14.819Z,86.8
2024-01-18T12:17:17.108Z,86.7
2024-01-18T12:18:19.202Z,86.9
2024-01-18T12:19:20.888Z,87.3
2024-01-18T12:20:22.953Z,87.5
2024-01-18T12:21:25.325Z,87.7
2024-01-18T12:22:26.808Z,87.7
2024-01-18T12:23:28.800Z,87.8
2024-01-18T12:24:31.181Z,88
2024-01-18T12:25:32.826Z,87.8
2024-01-18T12:26:34.821Z,87.7
2024-01-18T12:27:37.076Z,87.5
2024-01-18T12:28:39.365Z,87.3
2024-01-18T12:29:41.119Z,87
2024-01-18T12:30:42.976Z,86.8
2024-01-18T12:31:44.864Z,86.6
2024-01-18T12:32:47.030Z,86.7
2024-01-18T12:33:49.211Z,87.1
2024-01-18T12:34:51.228Z,87.2
2024-01-18T12:35:52.778Z,87.4
2024-01-18T12:36:55.028Z,87.6
2024-01-18T12:37:56.936Z,87.6
2024-01-18T12:38:58.817Z,87.7
2024-01-18T12:40:01.424Z,88.1
2024-01-18T12:41:03.149Z,88.2
2024-01-18T12:42:04.788Z,88.2
2024-01-18T12:43:06.848Z,88.2
2024-01-18T12:44:08.784Z,88.3
2024-01-18T12:45:10.851Z,88.3
2024-01-18T12:46:12.781Z,88.2
2024-01-18T12:47:14.802Z,88.3
2024-01-18T12:48:17.380Z,88.5
2024-01-18T12:49:18.961Z,88.4
2024-01-18T12:50:21.111Z,88.3
2024-01-18T12:51:23.066Z,88
2024-01-18T12:52:25.064Z,87.7
2024-01-18T12:53:26.838Z,87.9
2024-01-18T12:54:28.811Z,87.9
2024-01-18T12:55:30.759Z,88
2024-01-18T12:56:33.013Z,88.2
2024-01-18T12:57:35.068Z,88.2
2024-01-18T12:58:36.759Z,88.2
2024-01-18T12:59:38.762Z,88.3
2024-01-18T13:00:41.571Z,88
2024-01-18T13:01:43.066Z,88
2024-01-18T13:02:46.186Z,88.1
2024-01-18T13:03:48.045Z,88.1
2024-01-18T13:04:49.197Z,88.1
2024-01-18T13:05:51.146Z,87.8
2024-01-18T13:07:02.919Z,87.9
2024-01-18T13:08:05.294Z,88
2024-01-18T13:09:06.971Z,87.8
2024-01-18T13:10:08.749Z,88
2024-01-18T13:11:12.158Z,87.7
2024-01-18T13:12:13.628Z,87.9
2024-01-18T13:13:15.388Z,88.1
2024-01-18T13:14:16.740Z,88.1
2024-01-18T13:15:18.808Z,87.9
2024-01-18T13:16:24.879Z,88.1
2024-01-18T13:17:26.718Z,88.2
2024-01-18T13:18:29.161Z,88.1
2024-01-18T13:19:31.268Z,88.1
2024-01-18T13:20:32.944Z,87.8
2024-01-18T13:21:34.937Z,88
2024-01-18T13:22:36.965Z,87.8
2024-01-18T13:23:38.623Z,87.8
2024-01-18T13:24:41.397Z,87.8
2024-01-18T13:25:42.823Z,88.1
2024-01-18T13:26:44.645Z,88.2
2024-01-18T13:27:46.970Z,88.6
2024-01-18T13:28:49.226Z,88.7
2024-01-18T13:29:50.662Z,88.5
2024-01-18T13:30:52.933Z,88.5
2024-01-18T13:31:54.615Z,88.5
2024-01-18T13:32:57.023Z,88.6
2024-01-18T13:33:59.266Z,88.8
2024-01-18T13:35:01.140Z,89
2024-01-18T13:36:02.598Z,89
2024-01-18T13:37:15.516Z,89
2024-01-18T13:38:19.492Z,88.5
2024-01-18T13:39:20.833Z,88.4
2024-01-18T13:40:22.774Z,88.7
2024-01-18T13:41:24.788Z,88.7
2024-01-18T13:42:27.106Z,89
2024-01-18T13:43:29.117Z,88.9
2024-01-18T13:44:30.768Z,88.7
2024-01-18T13:45:32.936Z,88.7
2024-01-18T13:46:34.905Z,89
2024-01-18T13:47:37.095Z,89.1
2024-01-18T13:48:39.109Z,89.1
2024-01-18T13:49:40.916Z,89.4